createdAt,value
2023-03-23T15:58:51.845Z,41.07
2023-03-23T16:01:26.318Z,40.97
2023-03-23T16:04:03.186Z,41.01
2023-03-23T16:06:34.513Z,40.95
2023-03-23T16:09:03.672Z,40.82
2023-03-23T16:11:33.632Z,40.63
2023-03-23T16:14:02.133Z,40.74
2023-03-23T16:16:39.871Z,40.72
2023-03-23T16:19:12.215Z,40.66
2023-03-23T16:21:41.580Z,40.66
2023-03-23T16:24:10.532Z,40.45
2023-03-23T16:26:41.259Z,40.72
2023-03-23T16:29:28.411Z,40.20
2023-03-23T16:32:04.562Z,40.16
2023-03-23T16:34:34.552Z,40.36
2023-03-23T16:37:03.510Z,40.16
2023-03-23T16:39:31.918Z,40.20
2023-03-23T16:42:00.989Z,39.82
2023-03-23T16:44:29.562Z,39.59
2023-03-23T16:46:58.578Z,39.31
2023-03-23T16:49:27.220Z,39.08
2023-03-23T16:51:56.558Z,39.23
2023-03-23T16:54:24.990Z,39.52
2023-03-23T16:56:53.827Z,39.68
2023-03-23T16:59:22.310Z,39.87
2023-03-23T17:01:51.180Z,39.59
2023-03-23T17:04:19.798Z,39.55
2023-03-23T17:06:49.277Z,39.52
2023-03-23T17:09:17.841Z,39.52
2023-03-23T17:11:46.707Z,39.58
2023-03-23T17:14:15.148Z,39.62
2023-03-23T17:16:43.928Z,39.69
2023-03-23T17:19:14.565Z,39.38
2023-03-23T17:21:43.606Z,39.58
2023-03-23T17:24:12.043Z,39.63
2023-03-23T17:26:40.798Z,39.62
2023-03-23T17:29:09.366Z,39.58
2023-03-23T17:31:38.254Z,39.66
2023-03-23T17:34:06.809Z,39.78
2023-03-23T17:36:36.101Z,39.63
2023-03-23T17:39:04.662Z,40.22
2023-03-23T17:41:33.579Z,40.54
2023-03-23T17:44:02.094Z,40.66
2023-03-23T17:46:31.137Z,40.68
2023-03-23T17:48:59.638Z,40.76
2023-03-23T17:51:28.449Z,40.80
2023-03-23T17:53:57.650Z,40.73
2023-03-23T17:56:26.657Z,40.96
2023-03-23T17:58:55.263Z,41.00
2023-03-23T18:01:24.281Z,41.12
2023-03-23T18:03:52.981Z,41.00
2023-03-23T18:06:22.090Z,41.18
2023-03-23T18:08:50.578Z,41.07
2023-03-23T18:11:19.357Z,41.14
2023-03-23T18:13:47.910Z,41.03
2023-03-23T18:16:16.932Z,41.27
2023-03-23T18:18:47.349Z,41.27
2023-03-23T18:21:16.868Z,41.46
2023-03-23T18:23:56.621Z,41.49
2023-03-23T18:26:28.444Z,41.56
2023-03-23T18:28:57.053Z,41.51
2023-03-23T18:31:26.096Z,41.62
2023-03-23T18:33:55.548Z,41.70
2023-03-23T18:36:27.446Z,41.92
2023-03-23T18:38:57.019Z,41.69
2023-03-23T18:41:26.264Z,41.74
2023-03-23T18:43:56.264Z,41.70
2023-03-23T18:46:26.982Z,41.84
2023-03-23T18:48:55.630Z,41.79
2023-03-23T18:51:26.347Z,42.16
2023-03-23T18:53:54.948Z,41.94
2023-03-23T18:56:23.828Z,41.74
2023-03-23T18:58:53.488Z,41.94
2023-03-23T19:01:22.514Z,41.73
2023-03-23T19:03:51.061Z,41.68
2023-03-23T19:06:26.746Z,42.13
2023-03-23T19:08:55.289Z,42.66
2023-03-23T19:11:28.336Z,42.44
2023-03-23T19:14:02.423Z,42.25
2023-03-23T19:16:34.267Z,42.15
2023-03-23T19:19:03.412Z,42.29
2023-03-23T19:21:32.725Z,42.52
2023-03-23T19:24:02.102Z,42.60
2023-03-23T19:26:38.335Z,42.95
2023-03-23T19:31:40.194Z,43.42
2023-03-23T19:34:08.890Z,43.69
2023-03-23T19:36:37.891Z,43.81
2023-03-23T19:39:07.132Z,43.81
2023-03-23T19:41:36.545Z,43.93
2023-03-23T19:44:05.904Z,43.89
2023-03-23T19:46:34.769Z,43.99
2023-03-23T19:49:03.796Z,44.00
2023-03-23T19:51:33.011Z,44.03
2023-03-23T19:54:01.646Z,43.91
2023-03-23T19:56:30.687Z,43.92
2023-03-23T19:59:00.226Z,43.79
2023-03-23T20:01:30.075Z,43.86
2023-03-23T20:04:00.180Z,43.80
2023-03-23T20:06:29.841Z,43.76
2023-03-23T20:09:00.009Z,43.79
2023-03-23T20:11:29.989Z,43.87
2023-03-23T20:13:58.571Z,44.03
2023-03-23T20:16:27.574Z,43.95
2023-03-23T20:18:59.946Z,44.01
2023-03-23T20:21:29.614Z,43.87
2023-03-23T20:23:58.928Z,43.70
2023-03-23T20:26:35.715Z,43.93
2023-03-23T20:29:05.104Z,43.95
2023-03-23T20:31:37.321Z,43.86
2023-03-23T20:34:13.179Z,43.91
2023-03-23T20:36:45.606Z,43.53
2023-03-23T20:39:23.490Z,43.77
2023-03-23T20:41:54.797Z,43.91
2023-03-23T20:44:23.525Z,43.59
2023-03-23T20:46:53.099Z,43.62
2023-03-23T20:49:22.275Z,43.59
2023-03-23T20:51:52.453Z,43.68
2023-03-23T20:54:22.208Z,43.92
2023-03-23T20:56:52.849Z,43.55
2023-03-23T20:59:23.462Z,43.75
2023-03-23T21:01:52.396Z,43.67
2023-03-23T21:04:23.278Z,43.63
2023-03-23T21:06:52.156Z,43.74
2023-03-23T21:09:20.798Z,43.71
2023-03-23T21:11:49.972Z,43.53
2023-03-23T21:14:18.512Z,43.48
2023-03-23T21:16:47.576Z,43.36
2023-03-23T21:19:16.122Z,43.59
2023-03-23T21:21:56.285Z,43.25
2023-03-23T21:24:30.443Z,43.45
2023-03-23T21:27:01.211Z,43.20
2023-03-23T21:29:31.014Z,43.52
2023-03-23T21:34:31.140Z,43.62
2023-03-23T21:36:59.990Z,43.39
2023-03-23T21:39:28.736Z,43.26
2023-03-23T21:41:59.587Z,43.40
2023-03-23T21:44:28.162Z,43.34
2023-03-23T21:46:56.952Z,43.21
2023-03-23T21:49:25.415Z,42.98
2023-03-23T21:51:54.352Z,42.99
2023-03-23T21:54:22.871Z,43.08
2023-03-23T21:56:52.500Z,42.88
2023-03-23T21:59:20.989Z,43.00
2023-03-23T22:01:50.560Z,43.07
2023-03-23T22:04:20.679Z,43.19
2023-03-23T22:06:49.837Z,42.85
2023-03-23T22:09:18.349Z,43.14
2023-03-23T22:11:47.114Z,43.03
2023-03-23T22:14:15.621Z,42.93
2023-03-23T22:16:44.733Z,43.02
2023-03-23T22:19:13.229Z,42.80
2023-03-23T22:21:42.128Z,42.81
2023-03-23T22:24:10.680Z,43.02
2023-03-23T22:26:39.758Z,43.10
2023-03-23T22:29:11.330Z,42.71
2023-03-23T22:31:40.604Z,42.52
2023-03-23T22:34:09.294Z,42.32
2023-03-23T22:36:39.228Z,42.31
2023-03-23T22:39:08.523Z,42.48
2023-03-23T22:41:41.122Z,42.21
2023-03-23T22:44:14.083Z,42.12
2023-03-23T22:46:44.108Z,42.12
2023-03-23T22:49:12.717Z,42.25
2023-03-23T22:51:41.878Z,42.14
2023-03-23T22:54:10.967Z,42.08
2023-03-23T22:56:39.889Z,42.10
2023-03-23T22:59:08.651Z,41.95
2023-03-23T23:01:37.641Z,42.08
2023-03-23T23:04:06.739Z,42.20
2023-03-23T23:06:35.958Z,42.10
2023-03-23T23:09:05.035Z,42.20
2023-03-23T23:11:34.218Z,42.09
2023-03-23T23:14:03.248Z,41.97
2023-03-23T23:16:32.253Z,42.25
2023-03-23T23:19:00.883Z,42.02
2023-03-23T23:21:29.817Z,42.19
2023-03-23T23:23:58.481Z,42.00
2023-03-23T23:26:27.748Z,42.02
2023-03-23T23:28:56.566Z,42.28
2023-03-23T23:31:31.816Z,41.99
2023-03-23T23:34:01.425Z,41.94
2023-03-23T23:36:32.098Z,42.26
2023-03-23T23:39:01.284Z,42.23
2023-03-23T23:41:31.074Z,41.98
2023-03-23T23:43:59.964Z,41.90
2023-03-23T23:46:30.926Z,42.02
2023-03-23T23:49:01.179Z,41.98
2023-03-23T23:51:30.512Z,41.85
2023-03-23T23:54:01.922Z,41.98
2023-03-23T23:56:30.889Z,41.79
2023-03-23T23:58:59.414Z,41.79
